Archival Weather

Phoenix Sky Harbor Intl

Phoenix, Arizona (KPHX)

Report from: Thursday, December 7, 2023 4:51 PM MST
Current time: Thursday, July 18, 2024 8:27 PM MST

Current weather – Weather history – Daily summaries
Weather forecast

Temperature24.4°C (75.9°F)
Dew point0.6°C (33.1°F)
Winds Calm
Visibility10 mi. (16.1 km)
Clouds Few clouds 18,000 ft. (5,486 m)
Few clouds 25,000 ft. (7,620 m)
Altimeter29.88 in.Hg (1012 mB)
Relative humidity21 %
Density altitude1,276 ft. (389 m)
Sea-level pressure101.1 kPa (1011 mB, 29.85 in.Hg)
Max temp last 6 hours25.6°C (78.1°F)
Min temp last 6 hours18.3°C (64.9°F)
Remarks Automated weather observing station with precipitation discriminator
Pressure falling more slowly
Flight conditions Visual Meteorological Conditions
Raw dataKPHX 072351Z 00000KT 10SM FEW180 FEW250 24/01 A2988 RMK AO2 SLP107 T02440006 10256 20183 56012
An error has occurred. This application may no longer respond until reloaded. Reload 🗙